createdAt,value
2022-09-03T00:03:05.494Z,99.33
2022-09-03T00:08:09.824Z,97.93
2022-09-03T00:13:13.816Z,97.11
2022-09-03T00:18:16.546Z,96.23
2022-09-03T00:23:19.328Z,96.50
2022-09-03T00:28:24.305Z,97.52
2022-09-03T00:33:27.909Z,97.14
2022-09-03T00:38:30.658Z,97.21
2022-09-03T00:43:34.980Z,99.17
2022-09-03T00:48:37.830Z,99.90
2022-09-03T00:53:42.362Z,100.00
2022-09-03T00:58:45.351Z,100.00
2022-09-03T01:03:51.200Z,100.00
2022-09-03T01:09:01.398Z,100.00
2022-09-03T01:14:06.647Z,100.00
2022-09-03T01:19:09.934Z,100.00
2022-09-03T01:24:13.279Z,100.00
2022-09-03T01:29:16.361Z,100.00
2022-09-03T01:34:19.490Z,100.00
2022-09-03T01:39:22.606Z,100.00
2022-09-03T01:44:25.353Z,100.00
2022-09-03T01:49:29.186Z,100.00
2022-09-03T01:54:33.250Z,100.00
2022-09-03T01:59:36.977Z,100.00
2022-09-03T02:04:39.681Z,100.00
2022-09-03T02:09:42.574Z,100.00
2022-09-03T02:14:45.305Z,100.00
2022-09-03T02:19:48.002Z,100.00
2022-09-03T02:24:50.697Z,100.00
2022-09-03T02:29:53.550Z,100.00
2022-09-03T02:34:56.456Z,100.00
2022-09-03T02:39:59.254Z,100.00
2022-09-03T02:45:02.181Z,100.00
2022-09-03T02:50:04.988Z,100.00
2022-09-03T02:55:07.723Z,100.00
2022-09-03T03:00:10.518Z,100.00
2022-09-03T03:05:13.557Z,100.00
2022-09-03T03:10:16.428Z,100.00
2022-09-03T03:15:19.486Z,100.00
2022-09-03T03:20:22.181Z,100.00
2022-09-03T03:25:24.910Z,100.00
2022-09-03T03:30:27.711Z,100.00
2022-09-03T03:35:30.470Z,100.00
2022-09-03T03:40:33.955Z,100.00
2022-09-03T03:45:36.791Z,100.00
2022-09-03T03:50:39.595Z,100.00
2022-09-03T03:55:42.422Z,100.00
2022-09-03T04:00:45.221Z,100.00
2022-09-03T04:05:48.655Z,100.00
2022-09-03T04:10:51.591Z,100.00
2022-09-03T04:15:54.358Z,100.00
2022-09-03T04:20:57.159Z,100.00
2022-09-03T04:26:00.021Z,100.00
2022-09-03T04:31:03.147Z,100.00
2022-09-03T04:36:08.296Z,100.00
2022-09-03T04:41:11.310Z,100.00
2022-09-03T04:46:16.282Z,100.00
2022-09-03T04:51:20.977Z,100.00
2022-09-03T04:56:23.784Z,100.00
2022-09-03T05:01:26.553Z,100.00
2022-09-03T05:06:29.974Z,100.00
2022-09-03T05:11:32.762Z,100.00
2022-09-03T05:16:35.664Z,100.00
2022-09-03T05:21:38.479Z,100.00
2022-09-03T05:26:41.955Z,100.00
2022-09-03T05:31:44.722Z,100.00
2022-09-03T05:36:50.076Z,99.33
2022-09-03T05:41:53.252Z,96.52
2022-09-03T05:46:56.798Z,94.19
2022-09-03T05:51:59.572Z,92.55
2022-09-03T05:57:02.353Z,91.94
2022-09-03T06:02:05.606Z,92.57
2022-09-03T06:07:08.884Z,89.37
2022-09-03T06:12:11.612Z,92.80
2022-09-03T06:17:15.162Z,89.11
2022-09-03T06:22:18.249Z,89.46
2022-09-03T06:27:21.307Z,88.49
2022-09-03T06:32:24.682Z,91.85
2022-09-03T06:37:27.825Z,92.97
2022-09-03T06:42:31.476Z,93.68
2022-09-03T06:47:34.174Z,90.52
2022-09-03T06:52:36.912Z,91.25
2022-09-03T06:57:40.028Z,91.22
2022-09-03T07:02:44.956Z,92.16
2022-09-03T07:07:48.001Z,93.37
2022-09-03T07:12:50.873Z,100.00
2022-09-03T07:17:53.766Z,100.00
2022-09-03T07:22:56.773Z,100.00
2022-09-03T07:28:00.148Z,100.00
2022-09-03T07:33:04.592Z,100.00
2022-09-03T07:38:08.112Z,100.00
2022-09-03T07:43:11.051Z,100.00
2022-09-03T07:48:13.907Z,98.49
2022-09-03T07:53:17.090Z,100.00
2022-09-03T07:58:24.022Z,99.54
2022-09-03T08:03:27.020Z,100.00
2022-09-03T08:08:33.669Z,99.25
2022-09-03T08:13:38.635Z,93.93
2022-09-03T08:18:41.396Z,91.81
2022-09-03T08:23:44.319Z,91.17
2022-09-03T08:28:47.280Z,88.49
2022-09-03T08:33:50.979Z,84.03
2022-09-03T08:38:55.315Z,82.86
2022-09-03T08:43:58.219Z,84.65
2022-09-03T08:49:05.986Z,83.58
2022-09-03T08:54:08.932Z,83.10
2022-09-03T08:59:11.804Z,79.97
2022-09-03T09:04:19.197Z,75.80
2022-09-03T09:09:22.045Z,68.20
2022-09-03T09:14:24.915Z,65.51
2022-09-03T09:19:27.881Z,65.19
2022-09-03T09:24:37.156Z,65.97
2022-09-03T09:29:39.909Z,65.32
2022-09-03T09:34:42.752Z,64.02
2022-09-03T09:39:45.787Z,59.61
2022-09-03T09:44:49.008Z,59.17
2022-09-03T09:49:51.878Z,56.82
2022-09-03T09:54:55.282Z,55.73
2022-09-03T09:59:58.182Z,54.87
2022-09-03T10:05:01.122Z,55.52
2022-09-03T10:10:04.302Z,61.13
2022-09-03T10:15:07.426Z,61.72
2022-09-03T10:20:31.140Z,60.98
2022-09-03T10:25:34.037Z,61.75
2022-09-03T10:30:40.105Z,57.78
2022-09-03T10:35:43.408Z,54.93
2022-09-03T10:40:46.229Z,52.83
2022-09-03T10:45:49.877Z,52.82
2022-09-03T10:50:52.762Z,50.81
2022-09-03T10:55:56.026Z,47.34
2022-09-03T11:00:59.079Z,49.13
2022-09-03T11:06:02.022Z,48.71
2022-09-03T11:11:04.771Z,45.29
2022-09-03T11:16:07.727Z,46.38
2022-09-03T11:21:12.366Z,47.53
2022-09-03T11:26:15.518Z,47.20
2022-09-03T11:31:18.762Z,45.24
2022-09-03T11:36:21.680Z,46.35
2022-09-03T11:41:26.106Z,46.48
2022-09-03T11:46:29.108Z,48.46
2022-09-03T11:51:32.404Z,49.77
2022-09-03T11:56:35.299Z,50.47
2022-09-03T12:01:38.466Z,49.06
2022-09-03T12:06:41.581Z,49.69
2022-09-03T12:11:44.460Z,50.35
2022-09-03T12:16:48.698Z,51.79
2022-09-03T12:21:52.758Z,53.41
2022-09-03T12:26:56.291Z,52.37
2022-09-03T12:31:59.283Z,53.67
2022-09-03T12:37:02.175Z,52.06
2022-09-03T12:42:04.941Z,52.35
2022-09-03T12:52:30.513Z,51.24
2022-09-03T12:57:34.028Z,50.73
2022-09-03T13:02:36.881Z,49.50
2022-09-03T13:07:44.712Z,50.29
2022-09-03T13:12:53.162Z,49.80
2022-09-03T13:17:56.318Z,52.46
2022-09-03T13:22:59.425Z,52.78
2022-09-03T13:28:02.703Z,52.52
2022-09-03T13:33:06.040Z,52.50
2022-09-03T13:38:09.029Z,52.05
2022-09-03T13:43:17.024Z,52.77
2022-09-03T13:48:39.174Z,54.22
2022-09-03T13:53:43.083Z,55.38
2022-09-03T13:58:46.079Z,55.93
2022-09-03T14:03:49.365Z,55.71
2022-09-03T14:08:58.606Z,58.29
2022-09-03T14:14:01.809Z,60.96
2022-09-03T14:19:06.618Z,62.82
2022-09-03T14:24:09.450Z,68.18
2022-09-03T14:29:12.333Z,84.09
2022-09-03T14:34:15.141Z,100.00
2022-09-03T14:39:18.231Z,100.00
2022-09-03T14:44:21.130Z,100.00
2022-09-03T14:49:23.941Z,100.00
2022-09-03T14:54:28.001Z,100.00
2022-09-03T14:59:30.733Z,100.00
2022-09-03T15:04:33.576Z,100.00
2022-09-03T15:09:37.329Z,100.00
2022-09-03T15:14:40.163Z,100.00
2022-09-03T15:19:44.768Z,100.00
2022-09-03T15:24:47.758Z,100.00
2022-09-03T15:29:51.697Z,100.00
2022-09-03T15:34:54.627Z,100.00
2022-09-03T15:39:57.936Z,100.00
2022-09-03T15:45:01.504Z,100.00
2022-09-03T15:50:06.330Z,100.00
2022-09-03T15:55:09.775Z,100.00
2022-09-03T16:00:12.598Z,100.00
2022-09-03T16:05:16.448Z,100.00
2022-09-03T16:10:26.625Z,100.00
2022-09-03T16:15:30.305Z,100.00
2022-09-03T16:20:34.366Z,100.00
2022-09-03T16:25:38.671Z,100.00
2022-09-03T16:30:47.985Z,100.00
2022-09-03T16:35:50.822Z,100.00
2022-09-03T16:40:57.092Z,100.00
2022-09-03T16:46:00.985Z,100.00
2022-09-03T16:51:06.138Z,100.00
2022-09-03T16:56:14.006Z,100.00
2022-09-03T17:01:16.972Z,100.00
2022-09-03T17:06:20.093Z,100.00
2022-09-03T17:11:22.933Z,100.00
2022-09-03T17:16:26.044Z,100.00
2022-09-03T17:21:28.784Z,100.00
2022-09-03T17:26:32.558Z,100.00
2022-09-03T17:31:36.791Z,100.00
2022-09-03T17:36:39.669Z,100.00
2022-09-03T17:41:42.377Z,100.00
2022-09-03T17:46:45.274Z,100.00
2022-09-03T17:51:48.082Z,100.00
2022-09-03T17:56:50.839Z,100.00
2022-09-03T18:01:53.988Z,100.00
2022-09-03T18:06:57.351Z,100.00
2022-09-03T18:12:00.177Z,100.00
2022-09-03T18:17:03.181Z,100.00
2022-09-03T18:22:23.285Z,100.00
2022-09-03T18:27:43.574Z,100.00
2022-09-03T18:33:04.109Z,100.00
2022-09-03T18:38:27.530Z,100.00
2022-09-03T18:43:49.237Z,100.00
2022-09-03T18:49:09.583Z,100.00
2022-09-03T18:54:44.990Z,100.00
2022-09-03T19:00:10.574Z,100.00
2022-09-03T19:05:30.886Z,100.00
2022-09-03T19:10:51.546Z,100.00
2022-09-03T19:16:12.336Z,100.00
2022-09-03T19:21:33.358Z,100.00
2022-09-03T19:26:53.764Z,100.00
2022-09-03T19:32:13.999Z,100.00
2022-09-03T19:37:34.348Z,100.00
2022-09-03T19:42:54.759Z,100.00
2022-09-03T19:48:15.314Z,100.00
2022-09-03T19:53:35.860Z,100.00
2022-09-03T19:58:56.415Z,100.00
2022-09-03T20:04:16.993Z,100.00
2022-09-03T20:09:37.385Z,100.00
2022-09-03T20:14:40.963Z,100.00
2022-09-03T20:19:45.907Z,100.00
2022-09-03T20:24:49.558Z,100.00
2022-09-03T20:29:52.419Z,100.00
2022-09-03T20:34:55.275Z,100.00
2022-09-03T20:39:58.622Z,100.00
2022-09-03T20:45:08.218Z,100.00
2022-09-03T20:50:13.129Z,100.00
2022-09-03T20:55:15.906Z,100.00
2022-09-03T21:00:18.986Z,100.00
2022-09-03T21:05:22.059Z,100.00
2022-09-03T21:10:24.901Z,100.00
2022-09-03T21:15:27.703Z,100.00
2022-09-03T21:20:30.570Z,100.00
2022-09-03T21:25:33.401Z,100.00
2022-09-03T21:30:38.158Z,100.00
2022-09-03T21:35:42.985Z,100.00
2022-09-03T21:40:46.908Z,100.00
2022-09-03T21:45:50.246Z,100.00
2022-09-03T21:50:53.157Z,100.00
2022-09-03T21:55:56.454Z,100.00
2022-09-03T22:00:59.369Z,100.00
2022-09-03T22:06:02.238Z,100.00
2022-09-03T22:11:05.380Z,100.00
2022-09-03T22:16:13.574Z,100.00
2022-09-03T22:21:16.619Z,100.00
2022-09-03T22:26:21.409Z,100.00
2022-09-03T22:31:24.345Z,100.00
2022-09-03T22:36:27.357Z,100.00
2022-09-03T22:41:31.011Z,100.00
2022-09-03T22:46:33.839Z,100.00
2022-09-03T22:51:36.572Z,100.00
2022-09-03T22:56:39.452Z,100.00
2022-09-03T23:01:42.472Z,100.00
2022-09-03T23:06:51.009Z,100.00
2022-09-03T23:11:53.697Z,100.00
2022-09-03T23:16:56.616Z,100.00
2022-09-03T23:22:00.376Z,100.00
2022-09-03T23:27:03.109Z,100.00
2022-09-03T23:32:06.218Z,100.00
2022-09-03T23:37:33.190Z,100.00
2022-09-03T23:42:37.931Z,100.00
2022-09-03T23:47:40.701Z,100.00
2022-09-03T23:52:43.421Z,100.00
2022-09-03T23:57:46.772Z,100.00
